Time;durP1;ratioP1;P1;durP2;ratioP2;P2;SDS_P1;SDS_P2;PMS_P1;PMS_P2;Temp;Humidity;BMP_temperature;BMP_pressure;BME280_temperature;BME280_humidity;BME280_pressure;Samples;Min_cycle;Max_cycle;Signal;HPM_P1;HPM_P2
2021/12/26 00:00:55;;;;;;;1999.90;999.90;;;;;;;-11.14;59.88;101072.22;5026651;27;97355;-72
2021/12/26 00:03:24;;;;;;;1999.90;999.90;;;;;;;-11.15;60.50;101054.94;5022302;27;99727;-72
2021/12/26 00:05:52;;;;;;;1999.90;999.90;;;;;;;-11.16;59.93;101068.56;5028118;27;99636;-72
2021/12/26 00:08:20;;;;;;;1999.90;999.90;;;;;;;-11.15;60.24;101065.22;5027026;27;97217;-71
2021/12/26 00:10:50;;;;;;;1999.90;999.90;;;;;;;-11.17;59.96;101069.28;5025338;27;98914;-72
2021/12/26 00:13:19;;;;;;;1999.90;999.90;;;;;;;-11.19;60.22;101057.91;5026026;27;99176;-72
2021/12/26 00:15:46;;;;;;;1999.90;999.90;;;;;;;-11.20;59.81;101061.25;5027273;27;98661;-72
2021/12/26 00:18:15;;;;;;;1999.90;999.90;;;;;;;-11.20;59.93;101068.94;5022191;27;96809;-71
2021/12/26 00:20:44;;;;;;;1999.90;999.90;;;;;;;-11.23;60.53;101061.81;5027339;27;96731;-72
2021/12/26 00:23:12;;;;;;;1999.90;999.90;;;;;;;-11.25;60.77;101052.13;5022331;27;99310;-72
2021/12/26 00:25:40;;;;;;;1999.90;999.90;;;;;;;-11.28;60.51;101052.69;5017464;27;99874;-71
2021/12/26 00:28:09;;;;;;;1999.90;999.90;;;;;;;-11.28;60.06;101051.78;5023744;27;97015;-71
2021/12/26 00:30:38;;;;;;;1999.90;999.90;;;;;;;-11.30;60.28;101045.56;5024837;27;96976;-72
2021/12/26 00:33:05;;;;;;;1999.90;999.90;;;;;;;-11.30;60.09;101045.56;5007165;27;98259;-70
2021/12/26 00:35:33;;;;;;;1999.90;999.90;;;;;;;-11.32;60.35;101047.06;5023708;27;97606;-71
2021/12/26 00:38:01;;;;;;;1999.90;999.90;;;;;;;-11.32;60.00;101049.63;5027433;27;96862;-71
2021/12/26 00:40:29;;;;;;;1999.90;999.90;;;;;;;-11.34;60.30;101043.41;5024616;27;97006;-72
2021/12/26 00:42:57;;;;;;;1999.90;999.90;;;;;;;-11.36;60.30;101048.34;5025074;27;98014;-72
2021/12/26 00:45:26;;;;;;;1999.90;999.90;;;;;;;-11.39;60.30;101047.09;5028090;27;100144;-72
2021/12/26 00:47:54;;;;;;;1999.90;999.90;;;;;;;-11.39;60.28;101052.25;5028142;27;97387;-72
2021/12/26 00:50:26;;;;;;;1999.90;999.90;;;;;;;-11.41;60.37;101049.50;5021574;27;99058;-73
2021/12/26 00:52:54;;;;;;;1999.90;999.90;;;;;;;-11.41;60.15;101053.72;5023722;27;99567;-73
2021/12/26 00:55:21;;;;;;;1999.90;999.90;;;;;;;-11.42;60.16;101054.47;5021731;27;96797;-72
2021/12/26 00:57:50;;;;;;;1999.90;999.90;;;;;;;-11.44;60.46;101062.00;5011062;28;96848;-73
2021/12/26 01:00:20;;;;;;;1999.90;999.90;;;;;;;-11.45;60.31;101056.72;5021894;27;98309;-73
2021/12/26 01:02:50;;;;;;;1999.90;999.90;;;;;;;-11.46;60.41;101062.56;5022991;27;98303;-72
2021/12/26 01:05:20;;;;;;;1999.90;999.90;;;;;;;-11.44;60.03;101055.97;5008558;27;100280;-73
2021/12/26 01:07:56;;;;;;;1999.90;999.90;;;;;;;-11.45;59.98;101056.72;5024741;27;97195;-73
2021/12/26 01:10:26;;;;;;;1999.90;999.90;;;;;;;-11.44;60.59;101051.75;5025451;27;97850;-72
2021/12/26 01:12:55;;;;;;;1999.90;999.90;;;;;;;-11.44;59.88;101054.31;5025664;27;98793;-72
2021/12/26 01:15:27;;;;;;;1999.90;999.90;;;;;;;-11.46;59.95;101055.78;5010610;28;102317;-73
2021/12/26 01:18:10;;;;;;;1999.90;999.90;;;;;;;-11.48;60.70;101046.09;5007237;28;96999;-72
2021/12/26 01:20:43;;;;;;;1999.90;999.90;;;;;;;-11.49;60.16;101049.41;5027863;27;96873;-73
2021/12/26 01:23:13;;;;;;;1999.90;999.90;;;;;;;-11.54;60.13;101050.56;5023681;27;99684;-72
2021/12/26 01:25:41;;;;;;;1999.90;999.90;;;;;;;-11.55;60.41;101059.91;5023010;27;97336;-72
2021/12/26 01:28:09;;;;;;;1999.90;999.90;;;;;;;-11.57;59.91;101055.31;5025921;27;97286;-73
2021/12/26 01:30:39;;;;;;;1999.90;999.90;;;;;;;-11.60;60.08;101060.13;5008937;27;96947;-73
2021/12/26 01:33:10;;;;;;;1999.90;999.90;;;;;;;-11.62;60.17;101059.97;5025585;27;98874;-72
2021/12/26 01:36:09;;;;;;;1999.90;999.90;;;;;;;-11.63;60.21;101063.25;5001556;27;99214;-72
2021/12/26 01:38:58;;;;;;;1999.90;999.90;;;;;;;-11.67;60.33;101053.41;5020852;27;96988;-73
2021/12/26 01:41:53;;;;;;;1999.90;999.90;;;;;;;-11.68;59.95;101048.09;5020233;27;97307;-73
2021/12/26 01:44:40;;;;;;;1999.90;999.90;;;;;;;-11.69;59.66;101052.34;5021052;27;97364;-72
2021/12/26 01:47:12;;;;;;;1999.90;999.90;;;;;;;-11.70;59.93;101058.19;5024354;27;96889;-72
2021/12/26 01:49:41;;;;;;;1999.90;999.90;;;;;;;-11.72;60.40;101049.41;5016736;27;96820;-72
2021/12/26 01:52:09;;;;;;;1999.90;999.90;;;;;;;-11.72;60.41;101045.94;5024495;27;97894;-72
2021/12/26 01:54:43;;;;;;;1999.90;999.90;;;;;;;-11.73;60.09;101044.09;5009534;28;99325;-72
2021/12/26 01:57:12;;;;;;;1999.90;999.90;;;;;;;-11.75;60.37;101053.28;5004618;27;99288;-72
2021/12/26 01:59:41;;;;;;;1999.90;999.90;;;;;;;-11.76;60.43;101052.34;5009260;27;96876;-73
2021/12/26 02:02:35;;;;;;;1999.90;999.90;;;;;;;-11.76;60.07;101059.16;5010264;27;97582;-73
2021/12/26 02:05:05;;;;;;;1999.90;999.90;;;;;;;-11.77;60.07;101067.59;5004831;28;100488;-72
2021/12/26 02:07:33;;;;;;;1999.90;999.90;;;;;;;-11.78;60.16;101066.69;5024592;27;100346;-72
2021/12/26 02:10:01;;;;;;;1999.90;999.90;;;;;;;-11.80;60.35;101060.47;5010095;27;96981;-72
2021/12/26 02:12:29;;;;;;;1999.90;999.90;;;;;;;-11.79;60.82;101066.50;5026879;27;97181;-72
2021/12/26 02:14:57;;;;;;;1999.90;999.90;;;;;;;-11.82;60.20;101061.03;5006784;27;100336;-73
2021/12/26 02:17:30;;;;;;;1999.90;999.90;;;;;;;-11.84;59.74;101054.81;5025380;27;97790;-73
2021/12/26 02:20:23;;;;;;;1999.90;999.90;;;;;;;-11.87;60.17;101050.25;5003847;27;97802;-73
2021/12/26 02:22:57;;;;;;;1999.90;999.90;;;;;;;-11.85;60.23;101053.00;5004826;27;97655;-73
2021/12/26 02:25:31;;;;;;;1999.90;999.90;;;;;;;-11.87;60.20;101054.47;5007969;27;100540;-73
2021/12/26 02:28:00;;;;;;;1999.90;999.90;;;;;;;-11.88;60.44;101051.00;5009959;28;97737;-73
2021/12/26 02:30:28;;;;;;;1999.90;999.90;;;;;;;-11.89;59.84;101059.44;5004607;27;96967;-72
2021/12/26 02:32:59;;;;;;;1999.90;999.90;;;;;;;-11.91;60.21;101044.59;5024188;27;97957;-73
2021/12/26 02:35:29;;;;;;;1999.90;999.90;;;;;;;-11.92;59.73;101047.91;5022529;27;100336;-73
2021/12/26 02:37:57;;;;;;;1999.90;999.90;;;;;;;-11.92;59.84;101045.34;5042172;27;97623;-72
2021/12/26 02:40:24;;;;;;;1999.90;999.90;;;;;;;-11.93;60.27;101039.31;5026256;27;96791;-73
2021/12/26 02:42:52;;;;;;;1999.90;999.90;;;;;;;-11.91;60.28;101049.72;5021862;27;96963;-72
2021/12/26 02:45:21;;;;;;;1999.90;999.90;;;;;;;-11.93;60.26;101048.63;5004803;28;101370;-72
2021/12/26 02:47:51;;;;;;;1999.90;999.90;;;;;;;-11.95;60.51;101047.56;5019746;27;97184;-71
2021/12/26 02:50:21;;;;;;;1999.90;999.90;;;;;;;-11.95;60.07;101045.91;5004848;27;97302;-72
2021/12/26 02:52:52;;;;;;;1999.90;999.90;;;;;;;-11.96;59.94;101050.88;5038991;27;96702;-71
2021/12/26 02:55:21;;;;;;;1999.90;999.90;;;;;;;-11.96;60.26;101045.75;5013785;27;99387;-70
2021/12/26 02:57:50;;;;;;;1999.90;999.90;;;;;;;-11.96;60.39;101053.44;5006597;27;99231;-71
2021/12/26 03:00:20;;;;;;;1999.90;999.90;;;;;;;-11.96;60.00;101053.44;5024027;27;97897;-71
2021/12/26 03:02:52;;;;;;;1999.90;999.90;;;;;;;-11.97;60.07;101044.81;5020623;27;96954;-70
2021/12/26 03:05:21;;;;;;;1999.90;999.90;;;;;;;-11.97;60.29;101049.94;5021722;27;96820;-70
2021/12/26 03:07:49;;;;;;;1999.90;999.90;;;;;;;-11.96;60.07;101048.31;5022899;27;97629;-70
2021/12/26 03:10:22;;;;;;;1999.90;999.90;;;;;;;-11.97;60.46;101042.25;5022500;27;97028;-70
2021/12/26 03:12:51;;;;;;;1999.90;999.90;;;;;;;-11.96;60.24;101040.63;5023933;27;96876;-70
2021/12/26 03:15:19;;;;;;;1999.90;999.90;;;;;;;-11.97;60.28;101037.13;5006768;28;98691;-70
2021/12/26 03:17:47;;;;;;;1999.90;999.90;;;;;;;-11.98;60.31;101040.44;5022336;27;98726;-70
2021/12/26 03:20:17;;;;;;;1999.90;999.90;;;;;;;-11.97;60.32;101033.63;5022370;27;96885;-70
2021/12/26 03:22:45;;;;;;;1999.90;999.90;;;;;;;-11.97;59.89;101034.56;5021069;27;98413;-70
2021/12/26 03:25:16;;;;;;;1999.90;999.90;;;;;;;-11.96;60.44;101030.34;5006092;28;100472;-70
2021/12/26 03:27:45;;;;;;;1999.90;999.90;;;;;;;-11.97;60.27;101034.56;5021340;27;100479;-70
2021/12/26 03:30:16;;;;;;;1999.90;999.90;;;;;;;-11.97;60.06;101025.94;5002306;27;96857;-70
2021/12/26 03:32:54;;;;;;;;;;;;;;;;;;;;;
2021/12/26 03:35:18;;;;;;;1999.90;999.90;;;;;;;-11.98;59.84;101021.56;5021243;27;98015;-69
2021/12/26 03:37:46;;;;;;;1999.90;999.90;;;;;;;-11.98;60.41;101021.56;5007088;27;100663;-70
2021/12/26 03:40:34;;;;;;;1999.90;999.90;;;;;;;-12.00;60.68;101023.03;5011611;27;96669;-70
2021/12/26 03:43:04;;;;;;;1999.90;999.90;;;;;;;-12.01;60.38;101024.69;5004774;27;97350;-70
2021/12/26 03:45:40;;;;;;;1999.90;999.90;;;;;;;-12.00;59.65;101015.34;5021729;27;97770;-70
2021/12/26 03:48:08;;;;;;;1999.90;999.90;;;;;;;-12.00;60.41;101023.03;5022715;27;97624;-70
2021/12/26 03:50:39;;;;;;;1999.90;999.90;;;;;;;-12.02;60.56;101017.75;5020819;27;97036;-70
2021/12/26 03:53:08;;;;;;;1999.90;999.90;;;;;;;-12.01;59.89;101027.25;5002547;27;97110;-70
2021/12/26 03:55:37;;;;;;;1999.90;999.90;;;;;;;-12.03;60.15;101018.47;5020336;27;96983;-70
2021/12/26 03:58:08;;;;;;;1999.90;999.90;;;;;;;-12.03;60.20;101012.47;5021188;27;99838;-70
2021/12/26 04:00:36;;;;;;;1999.90;999.90;;;;;;;-12.03;60.02;101013.34;5007663;27;97159;-70
2021/12/26 04:03:04;;;;;;;1999.90;999.90;;;;;;;-12.03;60.23;101018.47;5002926;28;97699;-70
2021/12/26 04:05:40;;;;;;;1999.90;999.90;;;;;;;-12.03;60.45;101013.34;5006826;28;101129;-71
2021/12/26 04:08:08;;;;;;;1999.90;999.90;;;;;;;-12.04;60.19;101008.97;5023517;27;96870;-71
2021/12/26 04:10:36;;;;;;;1999.90;999.90;;;;;;;-12.03;60.25;101018.47;5023509;27;96920;-71
2021/12/26 04:13:04;;;;;;;1999.90;999.90;;;;;;;-12.02;60.15;101016.81;5007253;28;96897;-71
2021/12/26 04:15:33;;;;;;;1999.90;999.90;;;;;;;-12.04;60.26;101019.22;5004791;27;101179;-71
2021/12/26 04:18:01;;;;;;;1999.90;999.90;;;;;;;-12.04;60.18;101019.22;5006620;28;99586;-72
2021/12/26 04:20:30;;;;;;;1999.90;999.90;;;;;;;-12.06;60.17;101015.56;5024100;27;97030;-71
2021/12/26 04:22:58;;;;;;;1999.90;999.90;;;;;;;-12.08;59.98;101017.03;5023726;27;97079;-71
2021/12/26 04:25:27;;;;;;;1999.90;999.90;;;;;;;-12.07;60.36;101017.97;5023821;27;97824;-71
2021/12/26 04:27:55;;;;;;;1999.90;999.90;;;;;;;-12.07;60.19;101010.28;5017907;27;98515;-71
2021/12/26 04:30:26;;;;;;;1999.90;999.90;;;;;;;-12.08;60.40;101017.03;5009095;27;97324;-71
2021/12/26 04:32:55;;;;;;;1999.90;999.90;;;;;;;-12.09;60.32;101015.25;5025823;27;98951;-70
2021/12/26 04:35:24;;;;;;;1999.90;999.90;;;;;;;-12.09;60.59;101015.25;5025728;27;100012;-70
2021/12/26 04:37:53;;;;;;;1999.90;999.90;;;;;;;-12.11;60.26;101009.91;5010099;28;100319;-70
2021/12/26 04:40:21;;;;;;;1999.90;999.90;;;;;;;-12.09;60.66;101009.19;5009649;28;97216;-72
2021/12/26 04:43:07;;;;;;;1999.90;999.90;;;;;;;-12.13;59.97;101002.81;5021004;27;98757;-69
2021/12/26 04:45:51;;;;;;;1999.90;999.90;;;;;;;-12.13;60.03;101003.72;5009117;28;100791;-72
2021/12/26 04:48:32;;;;;;;1999.90;999.90;;;;;;;-12.13;59.89;101011.41;5024988;27;99617;-69
2021/12/26 04:51:00;;;;;;;1999.90;999.90;;;;;;;-12.14;59.84;101007.00;5026809;27;97078;-69
2021/12/26 04:53:28;;;;;;;1999.90;999.90;;;;;;;-12.13;59.99;101003.72;5026236;27;97090;-70
2021/12/26 04:55:55;;;;;;;1999.90;999.90;;;;;;;-12.15;59.90;101002.63;5025963;27;96786;-72
2021/12/26 04:58:23;;;;;;;1999.90;999.90;;;;;;;-12.16;59.70;101000.78;5008649;28;99290;-71
2021/12/26 05:00:51;;;;;;;1999.90;999.90;;;;;;;-12.17;60.20;101003.19;5023995;27;98684;-69
2021/12/26 05:03:19;;;;;;;1999.90;999.90;;;;;;;-12.20;60.00;101008.88;5023139;27;97340;-72
2021/12/26 05:05:48;;;;;;;1999.90;999.90;;;;;;;-12.21;59.97;100999.38;5024485;27;97564;-70
2021/12/26 05:08:16;;;;;;;1999.90;999.90;;;;;;;-12.21;60.30;101004.50;5026375;27;100476;-71
2021/12/26 05:10:44;;;;;;;1999.90;999.90;;;;;;;-12.23;59.89;101008.53;5026302;27;96876;-70
2021/12/26 05:13:12;;;;;;;1999.90;999.90;;;;;;;-12.24;60.06;100998.13;5026210;27;97025;-70
2021/12/26 05:15:40;;;;;;;1999.90;999.90;;;;;;;-12.25;60.16;100994.63;5021681;27;100538;-71
2021/12/26 05:18:08;;;;;;;1999.90;999.90;;;;;;;-12.26;59.98;101000.50;5010378;28;98075;-72
2021/12/26 05:20:37;;;;;;;1999.90;999.90;;;;;;;-12.27;60.08;100997.78;5009515;27;96873;-72
2021/12/26 05:23:06;;;;;;;1999.90;999.90;;;;;;;-12.27;60.14;100998.66;5026391;27;97196;-72
2021/12/26 05:25:34;;;;;;;1999.90;999.90;;;;;;;-12.29;60.36;100995.00;5009252;27;98471;-71
2021/12/26 05:28:02;;;;;;;1999.90;999.90;;;;;;;-12.30;59.89;100990.63;5026245;27;98229;-72
2021/12/26 05:30:31;;;;;;;1999.90;999.90;;;;;;;-12.30;60.04;100987.16;5022886;27;97012;-72
2021/12/26 05:33:22;;;;;;;1999.90;999.90;;;;;;;-12.32;59.90;100986.97;5013763;27;97023;-72
2021/12/26 05:35:52;;;;;;;1999.90;999.90;;;;;;;-12.34;60.46;100982.41;5026304;27;96927;-72
2021/12/26 05:38:25;;;;;;;1999.90;999.90;;;;;;;-12.35;59.94;100976.41;5007730;27;100812;-72
2021/12/26 05:40:53;;;;;;;1999.90;999.90;;;;;;;-12.36;60.15;100989.94;5009242;28;97153;-70
2021/12/26 05:43:22;;;;;;;1999.90;999.90;;;;;;;-12.38;60.43;100988.84;5020212;27;97020;-71
2021/12/26 05:45:50;;;;;;;1999.90;999.90;;;;;;;-12.38;59.89;100993.97;5022616;27;96877;-70
2021/12/26 05:48:22;;;;;;;1999.90;999.90;;;;;;;-12.38;60.44;100983.72;5001992;27;99300;-70
2021/12/26 05:50:52;;;;;;;1999.90;999.90;;;;;;;-12.40;60.32;100979.19;5026863;27;96877;-71
2021/12/26 05:53:39;;;;;;;1999.90;999.90;;;;;;;-12.41;59.88;100985.03;5021540;27;96894;-70
2021/12/26 05:56:08;;;;;;;1999.90;999.90;;;;;;;-12.44;60.37;100985.59;5024548;27;97198;-69
2021/12/26 05:58:36;;;;;;;1999.90;999.90;;;;;;;-12.45;60.08;100983.75;5006572;28;99644;-70
2021/12/26 06:01:05;;;;;;;1999.90;999.90;;;;;;;-12.48;60.22;100980.88;5024774;27;96811;-70
2021/12/26 06:03:34;;;;;;;1999.90;999.90;;;;;;;-12.50;60.28;100990.03;5006422;27;97948;-69
2021/12/26 06:06:03;;;;;;;1999.90;999.90;;;;;;;-12.53;60.08;100983.66;5027051;27;97979;-69
2021/12/26 06:08:37;;;;;;;1999.90;999.90;;;;;;;-12.55;60.27;100985.13;5009505;27;99260;-69
2021/12/26 06:11:06;;;;;;;1999.90;999.90;;;;;;;-12.57;59.92;100991.72;5007077;28;97060;-71
2021/12/26 06:13:34;;;;;;;1999.90;999.90;;;;;;;-12.57;60.15;100991.72;5004612;27;97280;-70
2021/12/26 06:16:01;;;;;;;1999.90;999.90;;;;;;;-12.59;60.25;101001.78;5004761;27;100782;-69
2021/12/26 06:18:29;;;;;;;1999.90;999.90;;;;;;;-12.60;60.20;101002.50;5023137;27;97889;-70
2021/12/26 06:21:15;;;;;;;1999.90;999.90;;;;;;;-12.61;60.14;100998.13;5022856;27;97429;-70
2021/12/26 06:23:50;;;;;;;1999.90;999.90;;;;;;;-12.60;60.10;101001.63;5026189;27;97449;-70
2021/12/26 06:26:38;;;;;;;1999.90;999.90;;;;;;;-12.64;59.71;100995.22;5021977;27;99247;-69
2021/12/26 06:29:20;;;;;;;1999.90;999.90;;;;;;;-12.65;59.99;100998.50;5007313;27;100046;-70
2021/12/26 06:32:26;;;;;;;1999.90;999.90;;;;;;;-12.67;60.05;101002.53;4994129;28;98222;-70
2021/12/26 06:35:14;;;;;;;1999.90;999.90;;;;;;;-12.68;59.54;101008.41;4999989;28;97217;-70
2021/12/26 06:38:04;;;;;;;1999.90;999.90;;;;;;;-12.70;59.94;101008.97;5017040;27;99377;-70
2021/12/26 06:40:50;;;;;;;1999.90;999.90;;;;;;;-12.73;59.95;101004.44;5024451;27;96846;-70
2021/12/26 06:43:38;;;;;;;1999.90;999.90;;;;;;;-12.74;59.84;101006.78;5020772;27;96793;-70
2021/12/26 06:46:24;;;;;;;1999.90;999.90;;;;;;;-12.77;59.99;101002.25;5024141;27;97006;-70
2021/12/26 06:49:16;;;;;;;1999.90;999.90;;;;;;;-12.79;60.13;101003.72;5004883;28;101014;-70
2021/12/26 06:51:44;;;;;;;1999.90;999.90;;;;;;;-12.79;59.96;101007.91;5003716;27;100721;-70
2021/12/26 06:54:12;;;;;;;1999.90;999.90;;;;;;;-12.80;60.31;101012.09;5022397;27;97607;-70
2021/12/26 06:56:41;;;;;;;1999.90;999.90;;;;;;;-12.81;60.20;101014.50;5024119;27;97105;-69
2021/12/26 06:59:10;;;;;;;1999.90;999.90;;;;;;;-12.82;60.05;101011.06;5020120;27;99445;-69
2021/12/26 07:01:37;;;;;;;1999.90;999.90;;;;;;;-12.82;59.96;101015.25;5007990;27;100614;-70
2021/12/26 07:04:08;;;;;;;1999.90;999.90;;;;;;;-12.84;60.18;101012.53;5020325;27;96955;-70
2021/12/26 07:06:37;;;;;;;1999.90;999.90;;;;;;;-12.88;60.27;101005.22;5009664;28;97036;-71
2021/12/26 07:09:10;;;;;;;1999.90;999.90;;;;;;;-12.86;60.14;101010.50;5003727;28;100596;-71
2021/12/26 07:11:38;;;;;;;1999.90;999.90;;;;;;;-12.89;60.09;101011.06;5007355;28;98882;-70
2021/12/26 07:14:11;;;;;;;1999.90;999.90;;;;;;;-12.91;59.77;101012.56;5025176;27;97914;-70
2021/12/26 07:16:39;;;;;;;1999.90;999.90;;;;;;;-12.93;60.16;101016.56;5021935;27;96783;-71
2021/12/26 07:19:07;;;;;;;1999.90;999.90;;;;;;;-12.95;59.98;101012.91;5006018;27;100523;-71
2021/12/26 07:21:40;;;;;;;1999.90;999.90;;;;;;;-12.96;60.31;101012.75;5019954;27;99737;-69
2021/12/26 07:24:11;;;;;;;1999.90;999.90;;;;;;;-12.98;60.41;101017.66;5023609;27;99909;-69
2021/12/26 07:26:40;;;;;;;1999.90;999.90;;;;;;;-13.00;60.11;101016.59;5018768;27;97262;-69
2021/12/26 07:29:29;;;;;;;1999.90;999.90;;;;;;;-13.01;60.13;101027.56;5017779;27;99717;-68
2021/12/26 07:31:56;;;;;;;1999.90;999.90;;;;;;;-13.00;60.09;101023.38;5000442;28;99746;-69
2021/12/26 07:34:24;;;;;;;1999.90;999.90;;;;;;;-13.02;60.08;101023.19;5016536;27;97520;-69
2021/12/26 07:36:52;;;;;;;1999.90;999.90;;;;;;;-13.02;59.95;101019.72;4997174;28;98318;-69
2021/12/26 07:39:22;;;;;;;1999.90;999.90;;;;;;;-13.01;59.78;101017.31;5037863;27;101161;-69
2021/12/26 07:41:50;;;;;;;1999.90;999.90;;;;;;;-13.01;60.04;101012.19;5025470;27;98220;-69
2021/12/26 07:44:37;;;;;;;1999.90;999.90;;;;;;;-13.01;59.83;101011.28;5014912;27;96978;-70
2021/12/26 07:47:23;;;;;;;1999.90;999.90;;;;;;;-13.00;59.78;101014.03;5025233;27;97315;-69
2021/12/26 07:49:55;;;;;;;1999.90;999.90;;;;;;;-13.02;60.17;101019.72;5035166;27;100088;-69
2021/12/26 07:52:43;;;;;;;1999.90;999.90;;;;;;;-13.03;60.14;101030.66;5010383;27;98701;-69
2021/12/26 07:55:29;;;;;;;1999.90;999.90;;;;;;;-13.04;59.90;101037.47;5016508;27;97476;-69
2021/12/26 07:58:16;;;;;;;1999.90;999.90;;;;;;;-13.02;60.14;101032.50;5011012;27;97851;-69
2021/12/26 08:01:04;;;;;;;1999.90;999.90;;;;;;;-13.01;59.98;101044.56;5008372;27;100441;-69
2021/12/26 08:03:48;;;;;;;1999.90;999.90;;;;;;;-13.03;60.21;101044.41;5001675;28;100938;-69
2021/12/26 08:06:48;;;;;;;1999.90;999.90;;;;;;;-13.03;60.00;101046.03;5010866;27;96814;-70
2021/12/26 08:09:16;;;;;;;1999.90;999.90;;;;;;;-13.03;60.27;101048.59;5025402;27;99078;-69
2021/12/26 08:11:43;;;;;;;1999.90;999.90;;;;;;;-13.02;60.02;101047.88;5020957;27;99342;-70
2021/12/26 08:14:11;;;;;;;1999.90;999.90;;;;;;;-13.01;60.01;101040.38;5026684;27;97593;-69
2021/12/26 08:16:41;;;;;;;1999.90;999.90;;;;;;;-12.98;59.96;101035.59;5025215;27;98185;-69
2021/12/26 08:19:09;;;;;;;1999.90;999.90;;;;;;;-12.98;59.97;101034.69;5021084;27;96793;-69
2021/12/26 08:21:36;;;;;;;1999.90;999.90;;;;;;;-12.97;60.25;101040.00;5022579;27;98999;-69
2021/12/26 08:24:05;;;;;;;1999.90;999.90;;;;;;;-12.95;60.13;101040.16;5022239;27;97776;-69
2021/12/26 08:26:36;;;;;;;1999.90;999.90;;;;;;;-12.94;60.34;101041.97;5020611;27;98253;-70
2021/12/26 08:29:04;;;;;;;1999.90;999.90;;;;;;;-12.93;60.23;101037.06;5025578;27;96974;-69
2021/12/26 08:31:32;;;;;;;1999.90;999.90;;;;;;;-12.90;60.12;101029.72;5006371;28;98626;-69
2021/12/26 08:34:04;;;;;;;1999.90;999.90;;;;;;;-12.89;60.11;101034.09;5024044;27;99689;-69
2021/12/26 08:36:31;;;;;;;1999.90;999.90;;;;;;;-12.85;59.98;101033.72;5019142;27;98314;-70
2021/12/26 08:39:03;;;;;;;1999.90;999.90;;;;;;;-12.84;59.88;101034.66;5030263;27;98189;-70
2021/12/26 08:41:30;;;;;;;1999.90;999.90;;;;;;;-12.82;59.96;101021.28;5004469;28;100821;-70
2021/12/26 08:43:58;;;;;;;1999.90;999.90;;;;;;;-12.80;59.91;101027.47;5023123;27;99175;-70
2021/12/26 08:46:26;;;;;;;1999.90;999.90;;;;;;;-12.78;59.90;101031.13;5025933;27;96831;-70
2021/12/26 08:48:54;;;;;;;1999.90;999.90;;;;;;;-12.76;59.89;101028.78;5022512;27;96823;-70
2021/12/26 08:51:23;;;;;;;1999.90;999.90;;;;;;;-12.74;60.02;101032.41;5020320;27;99009;-70
2021/12/26 08:53:51;;;;;;;1999.90;999.90;;;;;;;-12.70;59.95;101029.47;5025208;27;98741;-70
2021/12/26 08:56:18;;;;;;;1999.90;999.90;;;;;;;-12.68;60.09;101023.78;5023215;27;98023;-71
2021/12/26 08:58:46;;;;;;;1999.90;999.90;;;;;;;-12.65;59.95;101021.56;5021280;27;97218;-71
2021/12/26 09:01:14;;;;;;;1999.90;999.90;;;;;;;-12.62;59.77;101024.50;5003537;27;100498;-70
2021/12/26 09:03:42;;;;;;;1999.90;999.90;;;;;;;-12.59;60.13;101018.81;5019167;27;97618;-71
2021/12/26 09:06:10;;;;;;;1999.90;999.90;;;;;;;-12.55;59.63;101014.22;5023367;27;97686;-71
2021/12/26 09:08:39;;;;;;;1999.90;999.90;;;;;;;-12.53;60.07;101017.88;5021937;27;96879;-70
2021/12/26 09:11:07;;;;;;;1999.90;999.90;;;;;;;-12.50;59.97;101020.78;5016445;27;98441;-71
2021/12/26 09:13:35;;;;;;;1999.90;999.90;;;;;;;-12.46;60.16;101024.59;5016098;27;97874;-71
2021/12/26 09:16:03;;;;;;;1999.90;999.90;;;;;;;-12.42;60.33;101027.72;5024408;27;98487;-70
2021/12/26 09:18:32;;;;;;;1999.90;999.90;;;;;;;-12.38;59.54;101024.72;5024953;27;98140;-71
2021/12/26 09:20:59;;;;;;;1999.90;999.90;;;;;;;-12.33;59.75;101031.31;5025888;27;99351;-71
2021/12/26 09:23:27;;;;;;;1999.90;999.90;;;;;;;-12.30;59.95;101031.66;5022646;27;97761;-70
2021/12/26 09:25:56;;;;;;;1999.90;999.90;;;;;;;-12.26;59.57;101031.28;5023485;27;97251;-71
2021/12/26 09:28:25;;;;;;;1999.90;999.90;;;;;;;-12.20;59.83;101031.94;5022187;27;96736;-71
2021/12/26 09:30:53;;;;;;;1999.90;999.90;;;;;;;-12.16;59.31;101043.50;5025174;27;100809;-70
2021/12/26 09:33:21;;;;;;;1999.90;999.90;;;;;;;-12.13;59.76;101031.00;5017581;27;99743;-69
2021/12/26 09:35:50;;;;;;;1999.90;999.90;;;;;;;-12.12;59.60;101028.63;5018988;27;96878;-69
2021/12/26 09:38:18;;;;;;;1999.90;999.90;;;;;;;-12.10;59.79;101028.78;5023604;27;97155;-70
2021/12/26 09:40:46;;;;;;;1999.90;999.90;;;;;;;-11.80;58.89;101028.75;5014806;27;98688;-69
2021/12/26 09:43:15;;;;;;;1999.90;999.90;;;;;;;-11.94;59.15;101028.88;5019988;27;99865;-71
2021/12/26 09:45:42;;;;;;;1999.90;999.90;;;;;;;-11.94;59.30;101023.75;5036736;27;97067;-71
2021/12/26 09:48:10;;;;;;;1999.90;999.90;;;;;;;-11.90;59.65;101023.31;5022650;27;97418;-69
2021/12/26 09:50:38;;;;;;;1999.90;999.90;;;;;;;-11.88;59.25;101011.59;5021726;27;98886;-70
2021/12/26 09:53:06;;;;;;;1999.90;999.90;;;;;;;-11.85;59.53;101009.38;5022966;27;97770;-70
2021/12/26 09:55:34;;;;;;;1999.90;999.90;;;;;;;-11.81;59.02;101016.69;5023177;27;97454;-69
2021/12/26 09:58:01;;;;;;;1999.90;999.90;;;;;;;-11.77;58.92;101000.88;5018114;27;97158;-70
2021/12/26 10:00:33;;;;;;;1999.90;999.90;;;;;;;-11.74;59.54;101008.94;5022716;27;100501;-69
2021/12/26 10:03:20;;;;;;;1999.90;999.90;;;;;;;-11.71;59.39;101009.25;5023358;27;98573;-68
2021/12/26 10:06:00;;;;;;;1999.90;999.90;;;;;;;-11.69;59.33;101005.22;5028972;27;96686;-69
2021/12/26 10:08:28;;;;;;;1999.90;999.90;;;;;;;-11.65;59.40;101000.56;5026915;27;97574;-69
2021/12/26 10:11:11;;;;;;;1999.90;999.90;;;;;;;-11.64;59.19;101002.41;5024303;27;100721;-69
2021/12/26 10:13:44;;;;;;;1999.90;999.90;;;;;;;-11.59;59.83;101002.91;5023459;27;97589;-70
2021/12/26 10:16:15;;;;;;;1999.90;999.90;;;;;;;-11.53;59.45;101006.16;5020044;27;98426;-69
2021/12/26 10:18:44;;;;;;;1999.90;999.90;;;;;;;-11.48;59.59;100993.09;5022332;27;97619;-69
2021/12/26 10:21:32;;;;;;;1999.90;999.90;;;;;;;-11.45;59.41;100995.09;5018933;27;99186;-69
2021/12/26 10:24:03;;;;;;;1999.90;999.90;;;;;;;-11.39;59.28;101000.88;5017177;27;97492;-70
2021/12/26 10:26:33;;;;;;;1999.90;999.90;;;;;;;-11.38;59.36;100995.03;5019267;27;98886;-71
2021/12/26 10:29:13;;;;;;;1999.90;999.90;;;;;;;-11.36;58.72;100988.41;5016579;27;97128;-70
2021/12/26 10:31:52;;;;;;;1999.90;999.90;;;;;;;-11.34;58.90;100987.81;5003657;28;99704;-71
2021/12/26 10:34:25;;;;;;;1999.90;999.90;;;;;;;-11.29;58.78;100998.59;5020456;27;97564;-71
2021/12/26 10:36:55;;;;;;;1999.90;999.90;;;;;;;-11.28;59.37;101001.34;5037947;27;97290;-70
2021/12/26 10:39:25;;;;;;;1999.90;999.90;;;;;;;-11.29;59.48;101004.66;5008500;28;96655;-71
2021/12/26 10:41:56;;;;;;;1999.90;999.90;;;;;;;-11.27;59.11;101002.25;5015693;27;97192;-71
2021/12/26 10:44:30;;;;;;;1999.90;999.90;;;;;;;-11.25;59.11;100995.63;5016991;27;96968;-73
2021/12/26 10:47:04;;;;;;;1999.90;999.90;;;;;;;-11.22;59.27;100990.81;5017323;27;97176;-73
2021/12/26 10:49:38;;;;;;;1999.90;999.90;;;;;;;-11.18;59.24;100980.16;5023024;27;98839;-72
2021/12/26 10:52:22;;;;;;;1999.90;999.90;;;;;;;-11.14;59.29;100978.06;5020930;27;99673;-72
2021/12/26 10:54:59;;;;;;;1999.90;999.90;;;;;;;-11.09;59.54;100973.44;5019889;27;98881;-71
2021/12/26 10:57:29;;;;;;;1999.90;999.90;;;;;;;-11.01;58.86;100976.84;5018933;27;97152;-73
2021/12/26 11:00:06;;;;;;;1999.90;999.90;;;;;;;-10.98;59.14;100967.81;5018971;27;97054;-70